Time;durP1;ratioP1;P1;durP2;ratioP2;P2;SDS_P1;SDS_P2;PMS_P1;PMS_P2;Temp;Humidity;BMP_temperature;BMP_pressure;BME280_temperature;BME280_humidity;BME280_pressure;Samples;Min_cycle;Max_cycle;Signal;HPM_P1;HPM_P2
2022/10/24 00:01:29;;;;;;;9.00;2.60;;;16.80;85.90;;;;;;5002886;28;20450;-78
2022/10/24 00:03:58;;;;;;;12.67;3.10;;;16.70;86.00;;;;;;5002195;28;20473;-80
2022/10/24 00:06:26;;;;;;;7.00;3.40;;;16.70;85.90;;;;;;5000374;28;20449;-78
2022/10/24 00:08:54;;;;;;;12.43;3.33;;;16.70;85.90;;;;;;5001793;28;20459;-80
2022/10/24 00:11:26;;;;;;;10.43;3.20;;;16.70;85.90;;;;;;5002920;28;20449;-77
2022/10/24 00:13:56;;;;;;;8.07;3.37;;;16.70;85.80;;;;;;5003668;28;20544;-78
2022/10/24 00:16:24;;;;;;;10.43;3.97;;;16.60;85.80;;;;;;5018958;28;20519;-78
2022/10/24 00:18:52;;;;;;;11.53;3.20;;;16.60;85.70;;;;;;5000254;28;20459;-78
2022/10/24 00:21:20;;;;;;;15.20;3.73;;;16.50;85.80;;;;;;5004873;28;20515;-79
2022/10/24 00:23:48;;;;;;;8.60;2.60;;;16.50;85.70;;;;;;5015043;28;20473;-78
2022/10/24 00:26:16;;;;;;;14.27;3.00;;;16.50;85.80;;;;;;5000478;28;20943;-79
2022/10/24 00:28:46;;;;;;;8.70;3.00;;;16.50;85.80;;;;;;5001186;28;20473;-78
2022/10/24 00:31:16;;;;;;;9.63;3.80;;;16.40;85.80;;;;;;4996895;28;20457;-78
2022/10/24 00:33:45;;;;;;;13.80;3.60;;;16.40;85.80;;;;;;5007274;28;21063;-80
2022/10/24 00:36:14;;;;;;;10.53;3.13;;;16.40;85.60;;;;;;5022324;28;20528;-79
2022/10/24 00:38:43;;;;;;;10.60;3.00;;;16.30;85.60;;;;;;5000471;28;21223;-78
2022/10/24 00:41:15;;;;;;;10.73;2.90;;;16.20;85.70;;;;;;5003186;28;20958;-79
2022/10/24 00:43:43;;;;;;;9.17;2.83;;;16.20;85.80;;;;;;4994077;28;20548;-79
2022/10/24 00:46:13;;;;;;;8.47;2.93;;;16.20;85.80;;;;;;4995369;28;20452;-78
2022/10/24 00:48:44;;;;;;;12.47;2.50;;;16.10;85.70;;;;;;5001497;28;20512;-78
2022/10/24 00:51:23;;;;;;;7.20;2.73;;;16.10;85.70;;;;;;5005816;28;20444;-79
2022/10/24 00:53:53;;;;;;;5.73;3.00;;;16.00;85.80;;;;;;5006217;28;20523;-77
2022/10/24 00:56:24;;;;;;;9.30;3.30;;;16.00;85.80;;;;;;5002451;28;20452;-78
2022/10/24 00:58:54;;;;;;;6.57;3.00;;;16.00;85.90;;;;;;5005053;28;20461;-79
2022/10/24 01:01:24;;;;;;;8.87;2.77;;;16.00;85.90;;;;;;5007210;28;20456;-78
2022/10/24 01:03:52;;;;;;;9.80;2.50;;;16.00;86.00;;;;;;4998973;28;20469;-79
2022/10/24 01:06:42;;;;;;;10.20;2.70;;;16.00;86.00;;;;;;5021526;28;20496;-79
2022/10/24 01:09:20;;;;;;;7.60;2.60;;;16.00;86.00;;;;;;5004193;28;20445;-77
2022/10/24 01:11:58;;;;;;;8.13;2.50;;;16.00;85.90;;;;;;5005304;28;20499;-79
2022/10/24 01:14:38;;;;;;;7.77;2.60;;;16.00;85.90;;;;;;5005827;28;20570;-78
2022/10/24 01:17:13;;;;;;;7.50;2.90;;;16.00;85.90;;;;;;5002642;28;20483;-77
2022/10/24 01:20:11;;;;;;;11.07;2.83;;;16.00;86.00;;;;;;5000237;28;20465;-80
2022/10/24 01:22:49;;;;;;;12.60;3.30;;;16.00;86.00;;;;;;5003248;28;20453;-78
2022/10/24 01:25:25;;;;;;;6.37;2.50;;;16.10;86.00;;;;;;5004221;28;21075;-79
2022/10/24 01:28:04;;;;;;;9.50;3.23;;;16.10;86.00;;;;;;5000046;28;20480;-79
2022/10/24 01:30:41;;;;;;;16.60;3.50;;;16.10;85.90;;;;;;5003281;28;20448;-79
2022/10/24 01:33:18;;;;;;;12.03;3.17;;;16.10;85.90;;;;;;5000231;28;21064;-79
2022/10/24 01:35:53;;;;;;;7.60;2.70;;;16.10;85.90;;;;;;5003967;28;20898;-79
2022/10/24 01:38:26;;;;;;;11.20;2.80;;;16.10;85.80;;;;;;5005742;28;20458;-78
2022/10/24 01:40:58;;;;;;;9.83;2.87;;;16.10;85.80;;;;;;5020499;28;20461;-79
2022/10/24 01:43:28;;;;;;;7.93;2.33;;;16.00;85.80;;;;;;5003322;28;21041;-79
2022/10/24 01:46:02;;;;;;;8.90;2.83;;;16.00;85.70;;;;;;5009459;28;20441;-79
2022/10/24 01:48:34;;;;;;;8.80;2.67;;;16.00;85.70;;;;;;5019002;28;20469;-77
2022/10/24 01:51:04;;;;;;;13.90;3.07;;;16.00;85.70;;;;;;5005820;28;20463;-79
2022/10/24 01:53:32;;;;;;;9.13;2.90;;;15.90;85.80;;;;;;5004096;28;20484;-79
2022/10/24 01:56:01;;;;;;;10.57;3.17;;;15.90;85.80;;;;;;5021187;28;20576;-78
2022/10/24 01:58:30;;;;;;;8.87;3.10;;;15.90;85.90;;;;;;5005985;28;20520;-78
2022/10/24 02:01:05;;;;;;;9.10;2.80;;;15.90;85.80;;;;;;5008137;28;20519;-77
2022/10/24 02:03:36;;;;;;;16.87;3.03;;;15.90;85.80;;;;;;5023279;28;20494;-80
2022/10/24 02:06:10;;;;;;;15.63;3.10;;;15.90;85.80;;;;;;5017068;28;20789;-77
2022/10/24 02:08:42;;;;;;;7.77;2.67;;;15.90;85.90;;;;;;5008479;28;20468;-77
2022/10/24 02:11:11;;;;;;;8.30;2.53;;;16.00;86.00;;;;;;5006597;28;20456;-78
2022/10/24 02:13:45;;;;;;;8.50;2.67;;;16.00;85.90;;;;;;5003382;28;20493;-78
2022/10/24 02:16:17;;;;;;;7.60;2.40;;;16.00;85.90;;;;;;5007522;28;20480;-79
2022/10/24 02:18:46;;;;;;;9.40;2.40;;;16.00;85.70;;;;;;5003772;28;20457;-79
2022/10/24 02:21:25;;;;;;;13.87;2.93;;;16.00;85.70;;;;;;5006459;28;20897;-78
2022/10/24 02:23:57;;;;;;;8.43;2.60;;;16.00;85.60;;;;;;5005050;28;20563;-79
2022/10/24 02:26:32;;;;;;;9.27;2.60;;;16.00;85.60;;;;;;5002818;28;20477;-78
2022/10/24 02:29:04;;;;;;;17.17;2.93;;;16.10;85.50;;;;;;5009299;28;20471;-78
2022/10/24 02:31:36;;;;;;;12.83;2.63;;;16.10;85.50;;;;;;5005483;28;20457;-80
2022/10/24 02:34:07;;;;;;;7.20;2.37;;;16.10;85.50;;;;;;5013379;28;20475;-79
2022/10/24 02:36:37;;;;;;;5.73;2.10;;;16.10;85.50;;;;;;5004636;28;20472;-79
2022/10/24 02:39:08;;;;;;;16.50;2.40;;;16.10;85.40;;;;;;5016607;28;21192;-80
2022/10/24 02:41:39;;;;;;;11.80;2.80;;;16.10;85.30;;;;;;5008129;28;20954;-79
2022/10/24 02:44:08;;;;;;;9.63;2.30;;;16.00;85.30;;;;;;5009779;28;20494;-79
2022/10/24 02:46:42;;;;;;;9.40;2.40;;;16.00;85.30;;;;;;5009195;28;20436;-79
2022/10/24 02:49:11;;;;;;;9.30;2.33;;;16.00;85.20;;;;;;5009607;28;21026;-79
2022/10/24 02:51:43;;;;;;;6.40;2.47;;;16.00;85.30;;;;;;5006916;28;20496;-80
2022/10/24 02:54:11;;;;;;;8.33;3.10;;;15.90;85.30;;;;;;5016008;28;20522;-79
2022/10/24 02:56:43;;;;;;;9.20;2.67;;;15.90;85.30;;;;;;5017849;28;20572;-78
2022/10/24 02:59:11;;;;;;;9.40;2.40;;;15.90;85.20;;;;;;5012845;28;20445;-79
2022/10/24 03:01:40;;;;;;;7.53;2.30;;;15.90;85.10;;;;;;5011573;28;20582;-77
2022/10/24 03:04:08;;;;;;;6.90;3.07;;;15.90;85.10;;;;;;5017374;28;20468;-79
2022/10/24 03:06:37;;;;;;;8.23;2.73;;;15.80;85.10;;;;;;5011190;28;20519;-78
2022/10/24 03:09:05;;;;;;;10.37;2.90;;;15.80;85.10;;;;;;5008311;28;20456;-79
2022/10/24 03:11:33;;;;;;;20.27;2.90;;;15.70;85.20;;;;;;5019932;28;20823;-79
2022/10/24 03:14:01;;;;;;;9.00;3.27;;;15.70;85.10;;;;;;5005275;28;20483;-79
2022/10/24 03:16:29;;;;;;;15.27;3.10;;;15.70;85.10;;;;;;5007326;28;21158;-78
2022/10/24 03:18:59;;;;;;;11.20;3.07;;;15.70;85.10;;;;;;5021511;28;20456;-80
2022/10/24 03:21:27;;;;;;;11.83;2.77;;;15.70;85.10;;;;;;5004818;28;20513;-78
2022/10/24 03:23:55;;;;;;;13.30;3.37;;;15.70;85.10;;;;;;5005131;28;20985;-78
2022/10/24 03:26:23;;;;;;;8.03;2.37;;;15.70;85.10;;;;;;4997247;28;20450;-79
2022/10/24 03:28:51;;;;;;;14.83;4.83;;;15.70;85.20;;;;;;5002446;28;20444;-78
2022/10/24 03:31:19;;;;;;;12.43;2.20;;;15.70;85.10;;;;;;5008615;28;20465;-79
2022/10/24 03:33:46;;;;;;;11.13;2.57;;;15.70;85.30;;;;;;5006550;28;20517;-79
2022/10/24 03:36:17;;;;;;;15.00;2.40;;;15.70;85.40;;;;;;5003975;28;20473;-79
2022/10/24 03:38:45;;;;;;;13.70;2.40;;;15.70;85.50;;;;;;5007656;28;20459;-78
2022/10/24 03:41:13;;;;;;;9.40;2.10;;;15.80;85.50;;;;;;5007642;28;20456;-78
2022/10/24 03:43:41;;;;;;;9.67;2.10;;;15.80;85.50;;;;;;5004509;28;20480;-79
2022/10/24 03:46:09;;;;;;;5.93;1.87;;;15.90;85.50;;;;;;5016146;28;20454;-77
2022/10/24 03:48:37;;;;;;;11.00;2.33;;;15.90;85.40;;;;;;5008770;28;20461;-79
2022/10/24 03:51:05;;;;;;;10.57;2.50;;;15.90;85.40;;;;;;5014676;28;20960;-78
2022/10/24 03:53:34;;;;;;;13.43;1.97;;;16.00;85.30;;;;;;5006284;28;20468;-79
2022/10/24 03:56:03;;;;;;;6.33;2.00;;;16.00;85.10;;;;;;5004667;28;20473;-78
2022/10/24 03:58:31;;;;;;;6.30;2.10;;;16.00;85.00;;;;;;5001065;28;20457;-77
2022/10/24 04:00:59;;;;;;;11.00;2.73;;;16.00;84.90;;;;;;5002012;28;20479;-76
2022/10/24 04:03:27;;;;;;;5.13;2.20;;;16.00;84.80;;;;;;5016534;28;20481;-78
2022/10/24 04:05:55;;;;;;;6.40;1.70;;;16.00;84.60;;;;;;5007785;28;20527;-78
2022/10/24 04:08:23;;;;;;;10.57;1.90;;;16.00;84.70;;;;;;5013980;28;20437;-80
2022/10/24 04:10:53;;;;;;;9.70;2.10;;;15.90;84.70;;;;;;5006433;28;20539;-79
2022/10/24 04:13:21;;;;;;;8.93;2.30;;;15.90;84.70;;;;;;5007023;28;20479;-80
2022/10/24 04:15:49;;;;;;;11.70;2.10;;;15.90;84.70;;;;;;5004435;28;20481;-79
2022/10/24 04:18:17;;;;;;;10.70;2.83;;;15.90;84.70;;;;;;5004909;28;20458;-79
2022/10/24 04:20:45;;;;;;;6.43;1.77;;;15.90;84.70;;;;;;5013507;28;20450;-78
2022/10/24 04:23:13;;;;;;;15.73;2.10;;;15.90;84.50;;;;;;5003431;28;20986;-78
2022/10/24 04:25:41;;;;;;;6.10;2.87;;;15.90;84.50;;;;;;5028313;28;20523;-79
2022/10/24 04:28:10;;;;;;;6.03;2.33;;;15.90;84.40;;;;;;5005493;28;20861;-79
2022/10/24 04:30:38;;;;;;;10.47;3.20;;;15.90;84.40;;;;;;5004723;28;20548;-78
2022/10/24 04:33:06;;;;;;;9.43;2.83;;;15.90;84.50;;;;;;5017345;28;20496;-79
2022/10/24 04:35:34;;;;;;;9.13;2.97;;;15.90;84.40;;;;;;5003098;28;20453;-79
2022/10/24 04:38:02;;;;;;;10.97;2.53;;;15.80;84.30;;;;;;5005861;28;20991;-78
2022/10/24 04:40:30;;;;;;;8.00;2.10;;;15.80;84.30;;;;;;5004918;28;21036;-79
2022/10/24 04:42:58;;;;;;;11.67;2.80;;;15.80;84.30;;;;;;5004992;28;20568;-80
2022/10/24 04:45:28;;;;;;;14.60;2.20;;;15.80;84.40;;;;;;5014734;28;20881;-79
2022/10/24 04:47:55;;;;;;;7.97;2.43;;;15.80;84.30;;;;;;5000055;28;20450;-79
2022/10/24 04:50:23;;;;;;;13.10;2.43;;;15.80;84.30;;;;;;5010914;28;20449;-79
2022/10/24 04:52:51;;;;;;;10.73;2.40;;;15.80;84.40;;;;;;5003142;28;20452;-80
2022/10/24 04:55:19;;;;;;;9.30;3.20;;;15.70;84.40;;;;;;5008216;28;20547;-79
2022/10/24 04:57:47;;;;;;;9.93;2.27;;;15.70;84.40;;;;;;5023110;28;21259;-79
2022/10/24 05:00:16;;;;;;;10.00;2.57;;;15.70;84.40;;;;;;5004229;28;20457;-78
2022/10/24 05:02:45;;;;;;;12.33;2.30;;;15.70;84.30;;;;;;5003916;28;20449;-78
2022/10/24 05:05:13;;;;;;;8.13;1.77;;;15.70;84.30;;;;;;5005465;28;20457;-78
2022/10/24 05:07:41;;;;;;;7.27;2.40;;;15.70;84.30;;;;;;5014502;28;20897;-79
2022/10/24 05:10:11;;;;;;;9.50;2.20;;;15.70;84.40;;;;;;5005847;28;20499;-80
2022/10/24 05:12:39;;;;;;;11.20;2.07;;;15.70;84.40;;;;;;5001837;28;20476;-79
2022/10/24 05:15:08;;;;;;;7.60;2.43;;;15.70;84.30;;;;;;5002573;28;20460;-79
2022/10/24 05:17:36;;;;;;;9.10;3.10;;;15.70;84.30;;;;;;5003544;28;20472;-79
2022/10/24 05:20:07;;;;;;;13.83;2.20;;;15.70;84.30;;;;;;5016095;28;20514;-79
2022/10/24 05:22:35;;;;;;;8.70;3.23;;;15.70;84.40;;;;;;5019444;28;20461;-78
2022/10/24 05:25:03;;;;;;;7.60;2.83;;;15.60;84.40;;;;;;5003624;28;20477;-80
2022/10/24 05:27:32;;;;;;;8.00;2.77;;;15.60;84.50;;;;;;5008024;28;20465;-79
2022/10/24 05:30:00;;;;;;;10.43;2.77;;;15.60;84.50;;;;;;5017339;28;20507;-79
2022/10/24 05:32:28;;;;;;;11.00;3.13;;;15.60;84.50;;;;;;5008294;28;20453;-78
2022/10/24 05:34:55;;;;;;;13.37;2.90;;;15.60;84.60;;;;;;5012518;28;20468;-78
2022/10/24 05:37:25;;;;;;;12.10;3.17;;;15.60;84.60;;;;;;5001813;28;20469;-79
2022/10/24 05:39:53;;;;;;;9.07;2.97;;;15.60;84.60;;;;;;5003138;28;20483;-80
2022/10/24 05:42:21;;;;;;;6.40;2.50;;;15.60;84.70;;;;;;5024344;28;20526;-79
2022/10/24 05:44:48;;;;;;;8.93;2.43;;;15.60;84.70;;;;;;5019225;28;20485;-77
2022/10/24 05:47:16;;;;;;;12.97;2.60;;;15.60;84.70;;;;;;5009325;28;20456;-78
2022/10/24 05:49:44;;;;;;;9.40;2.60;;;15.60;84.80;;;;;;5005996;28;20445;-79
2022/10/24 05:52:12;;;;;;;8.33;2.90;;;15.60;84.70;;;;;;5007754;28;20457;-79
2022/10/24 05:54:41;;;;;;;8.37;3.00;;;15.60;84.80;;;;;;5009797;28;20476;-79
2022/10/24 05:57:29;;;;;;;9.03;2.50;;;15.60;84.90;;;;;;5001653;28;20469;-79
2022/10/24 05:59:57;;;;;;;9.90;2.60;;;15.60;85.00;;;;;;5007602;28;20553;-79
2022/10/24 06:02:25;;;;;;;9.93;2.80;;;15.60;85.10;;;;;;4995879;28;20542;-79
2022/10/24 06:04:54;;;;;;;15.77;3.17;;;15.60;85.10;;;;;;5020836;28;20488;-79
2022/10/24 06:07:23;;;;;;;14.13;3.13;;;15.60;85.10;;;;;;5022425;28;20452;-79
2022/10/24 06:09:52;;;;;;;11.77;4.00;;;15.70;85.00;;;;;;5020906;28;20465;-78
2022/10/24 06:12:20;;;;;;;7.93;3.03;;;15.60;85.00;;;;;;5009312;28;20448;-78
2022/10/24 06:14:48;;;;;;;16.50;6.00;;;15.60;85.10;;;;;;5005003;28;21009;-77
2022/10/24 06:17:16;;;;;;;20.43;6.30;;;15.60;85.10;;;;;;4999860;28;20596;-79
2022/10/24 06:19:45;;;;;;;7.87;3.57;;;15.70;85.10;;;;;;5000492;28;20939;-78
2022/10/24 06:22:13;;;;;;;25.90;17.00;;;15.60;85.10;;;;;;5005554;28;20539;-78
2022/10/24 06:24:41;;;;;;;46.30;25.60;;;15.70;85.20;;;;;;5022095;28;20481;-78
2022/10/24 06:27:10;;;;;;;18.10;8.47;;;15.60;85.20;;;;;;5005655;28;20510;-81
2022/10/24 06:29:38;;;;;;;95.40;53.60;;;15.70;85.30;;;;;;5003507;28;20465;-78
2022/10/24 06:32:06;;;;;;;27.20;15.20;;;15.70;85.20;;;;;;5005667;28;20525;-77
2022/10/24 06:34:34;;;;;;;19.27;8.17;;;15.70;85.30;;;;;;5003760;28;20491;-79
2022/10/24 06:37:02;;;;;;;20.27;5.83;;;15.70;85.40;;;;;;5005625;28;20477;-79
2022/10/24 06:39:30;;;;;;;12.13;4.80;;;15.70;85.50;;;;;;5000559;28;20469;-79
2022/10/24 06:41:58;;;;;;;15.73;3.47;;;15.80;85.50;;;;;;5000685;28;20460;-79
2022/10/24 06:44:28;;;;;;;11.47;2.80;;;15.80;85.50;;;;;;5002084;28;20485;-79
2022/10/24 06:46:56;;;;;;;7.00;3.00;;;15.90;85.50;;;;;;5017974;28;20838;-79
2022/10/24 06:49:24;;;;;;;16.30;3.00;;;15.90;85.50;;;;;;5004038;28;20461;-79
2022/10/24 06:51:52;;;;;;;10.63;2.80;;;16.00;85.50;;;;;;5013179;28;20460;-78
2022/10/24 06:54:20;;;;;;;9.87;2.30;;;16.00;85.50;;;;;;5004829;28;20484;-77
2022/10/24 06:56:52;;;;;;;10.03;2.47;;;16.00;85.40;;;;;;5002782;28;20991;-80
2022/10/24 06:59:20;;;;;;;13.20;2.40;;;16.10;85.30;;;;;;5001499;28;20449;-80
2022/10/24 07:01:49;;;;;;;10.57;2.77;;;16.10;85.30;;;;;;5022089;28;20491;-77
2022/10/24 07:04:17;;;;;;;11.57;2.50;;;16.10;85.50;;;;;;5000438;28;20476;-80
2022/10/24 07:06:45;;;;;;;8.90;3.80;;;16.20;85.50;;;;;;5004064;28;20462;-79
2022/10/24 07:09:13;;;;;;;13.07;3.73;;;16.20;85.50;;;;;;5017144;28;20510;-78
2022/10/24 07:11:42;;;;;;;15.53;3.30;;;16.20;85.60;;;;;;5002049;28;21426;-80
2022/10/24 07:14:11;;;;;;;10.60;2.80;;;16.30;85.60;;;;;;5004726;28;20484;-79
2022/10/24 07:16:40;;;;;;;8.70;3.20;;;16.30;85.60;;;;;;5005910;28;20469;-78
2022/10/24 07:19:10;;;;;;;11.20;3.33;;;16.30;85.60;;;;;;5002756;28;20846;-78
2022/10/24 07:21:38;;;;;;;11.83;4.00;;;16.40;85.60;;;;;;4999598;28;20454;-76
2022/10/24 07:24:07;;;;;;;15.83;3.10;;;16.40;85.60;;;;;;5002747;28;20493;-78
2022/10/24 07:26:35;;;;;;;16.13;3.47;;;16.40;85.60;;;;;;5019588;28;20453;-79
2022/10/24 07:29:03;;;;;;;8.80;2.57;;;16.50;85.50;;;;;;5002026;28;20452;-78
2022/10/24 07:31:33;;;;;;;11.33;2.70;;;16.50;85.30;;;;;;5001018;28;20465;-79
2022/10/24 07:34:03;;;;;;;9.67;2.60;;;16.50;85.20;;;;;;5001953;28;20488;-77
2022/10/24 07:36:33;;;;;;;11.13;3.30;;;16.50;85.20;;;;;;5004377;28;20484;-78
2022/10/24 07:39:01;;;;;;;12.97;2.80;;;16.50;85.20;;;;;;5017563;28;20523;-78
2022/10/24 07:41:31;;;;;;;10.63;3.23;;;16.50;85.20;;;;;;5004629;28;20461;-79
2022/10/24 07:44:00;;;;;;;13.03;3.40;;;16.50;85.40;;;;;;5010871;28;20484;-79
2022/10/24 07:46:29;;;;;;;12.33;3.23;;;16.50;85.40;;;;;;5002660;28;20449;-79
2022/10/24 07:48:57;;;;;;;11.70;2.77;;;16.50;85.40;;;;;;5019882;28;20468;-78
2022/10/24 07:51:27;;;;;;;13.10;2.77;;;16.50;85.40;;;;;;5005231;28;20500;-78
2022/10/24 07:53:57;;;;;;;16.60;3.47;;;16.50;85.40;;;;;;5001413;28;20492;-77
2022/10/24 07:56:25;;;;;;;9.03;2.33;;;16.60;85.50;;;;;;5003671;28;20531;-78
2022/10/24 07:58:53;;;;;;;8.03;2.50;;;16.60;85.50;;;;;;5002270;28;20484;-78
2022/10/24 08:01:24;;;;;;;16.83;3.07;;;16.60;85.50;;;;;;5014168;28;20481;-79
2022/10/24 08:03:52;;;;;;;12.37;2.57;;;16.60;85.50;;;;;;4998468;28;20911;-79
2022/10/24 08:06:22;;;;;;;13.07;3.37;;;16.60;85.50;;;;;;4999717;28;20536;-78
2022/10/24 08:08:50;;;;;;;14.63;4.63;;;16.70;85.50;;;;;;5002273;28;20445;-80
2022/10/24 08:11:21;;;;;;;8.77;2.83;;;16.70;85.50;;;;;;5015009;28;20841;-79
2022/10/24 08:13:50;;;;;;;19.23;3.23;;;16.70;85.60;;;;;;5015868;28;20582;-79
2022/10/24 08:16:21;;;;;;;8.57;3.50;;;16.70;85.50;;;;;;5000839;28;20515;-77
2022/10/24 08:18:51;;;;;;;10.20;3.27;;;16.70;85.50;;;;;;5003159;28;21057;-80
2022/10/24 08:21:20;;;;;;;11.40;3.20;;;16.70;85.40;;;;;;5001468;28;20468;-77
2022/10/24 08:23:51;;;;;;;10.17;3.30;;;16.70;85.40;;;;;;5002385;28;20481;-79
2022/10/24 08:26:23;;;;;;;18.33;2.93;;;16.70;85.40;;;;;;5017239;28;21028;-79
2022/10/24 08:28:52;;;;;;;12.60;3.77;;;16.70;85.40;;;;;;5001177;28;20444;-80
2022/10/24 08:31:25;;;;;;;11.07;3.13;;;16.70;85.50;;;;;;4998787;28;20836;-78
2022/10/24 08:33:54;;;;;;;13.67;3.23;;;16.70;85.50;;;;;;4998986;28;20486;-79
2022/10/24 08:36:25;;;;;;;10.70;3.63;;;16.80;85.50;;;;;;5003803;28;20475;-77
2022/10/24 08:38:53;;;;;;;11.73;3.13;;;16.80;85.50;;;;;;5001844;28;20476;-77
2022/10/24 08:41:30;;;;;;;13.40;3.83;;;16.80;85.50;;;;;;4998728;28;20464;-77
2022/10/24 08:44:01;;;;;;;9.67;3.20;;;16.80;85.50;;;;;;4998679;28;20493;-78
2022/10/24 08:46:43;;;;;;;10.10;2.97;;;16.80;85.60;;;;;;5017835;28;20480;-79
2022/10/24 08:49:18;;;;;;;6.47;2.97;;;16.80;85.60;;;;;;4996611;28;20454;-79
2022/10/24 08:51:51;;;;;;;13.50;2.77;;;16.80;85.60;;;;;;5012540;28;20523;-79
2022/10/24 08:54:23;;;;;;;9.97;2.87;;;16.80;85.60;;;;;;4995721;28;20472;-79
2022/10/24 08:56:56;;;;;;;9.00;2.90;;;16.90;85.60;;;;;;5020112;28;20453;-78
2022/10/24 08:59:26;;;;;;;7.90;3.00;;;16.90;85.60;;;;;;4998505;28;20509;-79
2022/10/24 09:01:58;;;;;;;10.70;2.57;;;16.90;85.60;;;;;;5014450;28;20507;-79
2022/10/24 09:04:38;;;;;;;7.00;3.03;;;16.90;85.60;;;;;;5016964;28;20472;-80
2022/10/24 09:07:13;;;;;;;12.83;2.50;;;16.90;85.60;;;;;;5020719;28;20460;-79
2022/10/24 09:09:48;;;;;;;8.87;2.10;;;16.90;85.60;;;;;;5012761;28;20810;-77
2022/10/24 09:12:19;;;;;;;9.57;3.13;;;16.90;85.70;;;;;;5014348;28;20464;-79
2022/10/24 09:14:54;;;;;;;8.40;2.70;;;17.00;85.60;;;;;;5012481;28;20461;-79
2022/10/24 09:17:24;;;;;;;11.33;2.60;;;17.00;85.60;;;;;;5012485;28;20452;-79
2022/10/24 09:19:56;;;;;;;9.30;2.17;;;17.00;85.50;;;;;;5014174;28;20488;-79
2022/10/24 09:22:26;;;;;;;15.50;3.50;;;17.00;85.50;;;;;;5029135;28;20469;-80
2022/10/24 09:24:58;;;;;;;9.33;2.57;;;17.00;85.60;;;;;;5010624;28;20481;-78
2022/10/24 09:27:29;;;;;;;6.00;2.03;;;17.00;85.60;;;;;;5014459;28;20452;-77
2022/10/24 09:29:58;;;;;;;11.77;2.60;;;17.10;85.60;;;;;;5010951;28;20479;-79
2022/10/24 09:32:29;;;;;;;10.83;3.17;;;17.10;85.50;;;;;;5007549;28;20826;-80
2022/10/24 09:35:00;;;;;;;7.93;2.70;;;17.10;85.50;;;;;;5007943;28;20530;-79
2022/10/24 09:37:42;;;;;;;12.53;2.90;;;17.10;85.50;;;;;;5009920;28;20453;-79
2022/10/24 09:40:21;;;;;;;11.70;3.20;;;17.10;85.50;;;;;;5005894;28;21119;-80
2022/10/24 09:42:55;;;;;;;15.50;3.37;;;17.10;85.60;;;;;;5008806;28;20467;-78
2022/10/24 09:45:46;;;;;;;9.60;3.10;;;17.10;85.60;;;;;;5005154;28;20965;-79
2022/10/24 09:48:22;;;;;;;12.27;2.43;;;17.10;85.50;;;;;;5004221;28;20471;-78
2022/10/24 09:50:58;;;;;;;14.07;3.00;;;17.10;85.50;;;;;;5006388;28;20445;-79
2022/10/24 09:53:30;;;;;;;6.67;2.70;;;17.10;85.50;;;;;;5003913;28;20488;-78
2022/10/24 09:56:00;;;;;;;9.37;2.67;;;17.10;85.50;;;;;;5019709;28;20456;-79
2022/10/24 09:58:32;;;;;;;10.80;2.60;;;17.10;85.60;;;;;;5010154;28;20461;-79
2022/10/24 10:01:04;;;;;;;11.40;2.40;;;17.10;85.50;;;;;;5004219;28;20472;-79
2022/10/24 10:03:33;;;;;;;30.90;3.93;;;17.10;85.50;;;;;;5021305;28;20489;-79
2022/10/24 10:06:08;;;;;;;9.70;3.00;;;17.10;85.50;;;;;;5008229;28;20982;-79
2022/10/24 10:08:37;;;;;;;8.13;2.83;;;17.10;85.50;;;;;;5007377;28;20456;-78
2022/10/24 10:11:07;;;;;;;11.80;3.10;;;17.20;85.40;;;;;;5009911;28;21020;-79
2022/10/24 10:13:48;;;;;;;10.10;2.43;;;17.20;85.40;;;;;;5002285;28;20472;-79
2022/10/24 10:16:22;;;;;;;16.90;4.10;;;17.20;85.50;;;;;;5003912;28;20581;-79
2022/10/24 10:19:00;;;;;;;14.13;3.30;;;17.20;85.50;;;;;;5005013;28;20632;-79
2022/10/24 10:21:54;;;;;;;11.10;3.20;;;17.20;85.50;;;;;;5018945;28;20458;-78
2022/10/24 10:24:27;;;;;;;10.20;2.60;;;17.30;85.30;;;;;;5005541;28;20481;-79
2022/10/24 10:26:55;;;;;;;10.97;2.50;;;17.30;85.50;;;;;;5004729;28;20552;-79
2022/10/24 10:29:24;;;;;;;10.90;3.73;;;17.30;85.50;;;;;;5007231;28;20464;-78
2022/10/24 10:31:58;;;;;;;15.47;2.70;;;17.40;85.50;;;;;;5005400;28;20453;-80
2022/10/24 10:34:34;;;;;;;10.80;2.70;;;17.40;85.30;;;;;;5002293;28;20481;-79
2022/10/24 10:37:26;;;;;;;16.23;3.50;;;17.40;85.30;;;;;;5000178;28;20522;-79
2022/10/24 10:40:15;;;;;;;8.67;2.77;;;17.50;85.30;;;;;;5018220;28;20488;-78
2022/10/24 10:42:54;;;;;;;15.07;3.57;;;17.50;85.30;;;;;;5003849;28;20483;-79
2022/10/24 10:45:34;;;;;;;8.80;2.87;;;17.50;85.30;;;;;;5005238;28;20456;-79
2022/10/24 10:48:12;;;;;;;8.13;2.20;;;17.50;85.30;;;;;;5006285;28;21296;-79
2022/10/24 10:50:45;;;;;;;9.23;2.87;;;17.60;85.20;;;;;;5001933;28;20513;-79
2022/10/24 10:53:29;;;;;;;10.90;3.17;;;17.60;85.20;;;;;;5003283;28;20536;-79
2022/10/24 10:56:06;;;;;;;10.73;3.30;;;17.60;85.10;;;;;;4998875;28;20462;-77
2022/10/24 10:58:42;;;;;;;8.37;2.70;;;17.70;85.00;;;;;;5003658;28;20989;-79
2022/10/24 11:01:19;;;;;;;14.20;4.40;;;17.70;84.90;;;;;;5003649;28;20479;-79
2022/10/24 11:03:54;;;;;;;14.00;3.07;;;17.70;84.90;;;;;;5002391;28;20477;-79
2022/10/24 11:06:30;;;;;;;9.53;2.87;;;17.70;84.90;;;;;;5006656;28;21008;-79
2022/10/24 11:09:34;;;;;;;6.63;2.47;;;17.70;84.90;;;;;;5005777;28;20483;-79
2022/10/24 11:12:09;;;;;;;11.00;3.50;;;17.70;84.80;;;;;;4982990;28;20472;-78
2022/10/24 11:14:40;;;;;;;9.47;3.60;;;17.70;84.80;;;;;;4999252;28;20558;-79
2022/10/24 11:17:15;;;;;;;12.33;3.30;;;17.70;84.80;;;;;;5004874;28;20473;-79
2022/10/24 11:19:56;;;;;;;8.27;3.07;;;17.70;84.80;;;;;;4999798;28;21147;-79
2022/10/24 11:22:29;;;;;;;11.37;2.80;;;17.70;84.60;;;;;;5002980;28;21254;-78
2022/10/24 11:25:03;;;;;;;9.13;3.00;;;17.70;84.60;;;;;;5016897;28;20476;-79
2022/10/24 11:27:38;;;;;;;12.13;3.00;;;17.70;84.70;;;;;;5003956;28;20460;-77
2022/10/24 11:30:14;;;;;;;11.50;2.83;;;17.70;84.70;;;;;;5002089;28;20456;-79
2022/10/24 11:32:49;;;;;;;17.63;3.00;;;17.70;84.50;;;;;;5001110;28;20467;-77
2022/10/24 11:35:25;;;;;;;18.50;3.40;;;17.70;84.60;;;;;;5005691;28;20460;-77
2022/10/24 11:37:59;;;;;;;10.43;3.57;;;17.70;84.60;;;;;;5001619;28;20455;-78
2022/10/24 11:40:29;;;;;;;6.70;2.20;;;17.70;84.70;;;;;;5001735;28;21034;-80
2022/10/24 11:43:06;;;;;;;13.20;2.63;;;17.70;84.70;;;;;;5000880;28;20511;-77
2022/10/24 11:45:44;;;;;;;13.50;3.00;;;17.70;84.70;;;;;;4999992;28;21229;-79
2022/10/24 11:48:16;;;;;;;10.00;2.33;;;17.80;84.70;;;;;;5000984;28;20441;-78
2022/10/24 11:50:49;;;;;;;11.60;2.97;;;17.80;84.60;;;;;;5000385;28;20476;-77
2022/10/24 11:53:26;;;;;;;7.80;3.17;;;17.80;84.50;;;;;;5003769;28;20481;-79
2022/10/24 11:55:59;;;;;;;9.90;2.53;;;17.80;84.60;;;;;;5004009;28;20472;-78
2022/10/24 11:58:32;;;;;;;9.47;2.90;;;17.80;84.60;;;;;;4998918;28;20990;-79
2022/10/24 12:01:24;;;;;;;12.27;2.83;;;17.80;84.60;;;;;;5005034;28;21135;-77
2022/10/24 12:04:06;;;;;;;11.20;2.70;;;17.80;84.60;;;;;;5000234;28;20474;-79
2022/10/24 12:06:52;;;;;;;9.07;3.43;;;17.80;84.70;;;;;;5022346;28;20464;-78
2022/10/24 12:09:41;;;;;;;10.20;3.93;;;17.80;84.60;;;;;;5004372;28;20445;-79
2022/10/24 12:12:46;;;;;;;9.80;3.40;;;17.90;84.60;;;;;;4996381;28;20449;-79
2022/10/24 12:15:34;;;;;;;9.30;3.13;;;17.90;84.60;;;;;;4999388;28;20444;-79
2022/10/24 12:18:11;;;;;;;9.27;2.70;;;17.90;84.70;;;;;;5003999;28;20661;-78
2022/10/24 12:20:40;;;;;;;11.53;3.10;;;17.90;84.60;;;;;;5003299;28;21034;-77
2022/10/24 12:23:18;;;;;;;14.50;2.70;;;17.90;84.50;;;;;;4997715;28;20800;-77
2022/10/24 12:25:51;;;;;;;9.00;3.00;;;17.90;84.60;;;;;;4998259;28;20449;-79
2022/10/24 12:28:25;;;;;;;14.73;2.97;;;18.00;84.60;;;;;;4999853;28;20456;-79
2022/10/24 12:31:10;;;;;;;10.67;2.63;;;18.00;84.50;;;;;;5002825;28;20518;-78
2022/10/24 12:33:38;;;;;;;7.90;2.20;;;18.00;84.50;;;;;;4999129;28;21009;-79
2022/10/24 12:36:06;;;;;;;6.00;2.43;;;18.00;84.50;;;;;;5005141;28;20449;-78
2022/10/24 12:39:08;;;;;;;8.93;2.57;;;18.00;84.50;;;;;;5014157;28;20532;-78
2022/10/24 12:41:44;;;;;;;7.90;2.70;;;18.10;84.40;;;;;;4998302;28;20473;-79
2022/10/24 12:44:44;;;;;;;8.20;2.30;;;18.10;84.40;;;;;;4997319;28;20489;-79
2022/10/24 12:47:30;;;;;;;11.70;3.33;;;18.10;84.30;;;;;;4944817;28;20450;-79
2022/10/24 12:50:19;;;;;;;12.33;2.80;;;18.10;84.40;;;;;;5002033;28;21155;-78
2022/10/24 12:53:02;;;;;;;13.07;2.80;;;18.10;84.40;;;;;;5002589;28;20544;-78
2022/10/24 12:56:05;;;;;;;11.43;2.93;;;18.10;84.20;;;;;;4998684;28;20449;-78
2022/10/24 12:58:35;;;;;;;8.50;2.47;;;18.10;84.10;;;;;;4997847;28;20461;-77
2022/10/24 13:01:09;;;;;;;8.60;2.60;;;18.10;84.10;;;;;;5014477;28;20534;-79
2022/10/24 13:03:56;;;;;;;18.10;2.57;;;18.10;84.10;;;;;;5019992;28;20483;-80
2022/10/24 13:06:30;;;;;;;6.67;2.30;;;18.10;84.20;;;;;;4999850;28;20457;-79